Terminal Aerodrome Forecast
Issued by NWS Shreveport, LA

Home | Current Version | Previous Version | Text Only | Print | Product List | Glossary On
Versions: 1 2 3 4 5 6 7 8 9 10 11 12 13 14 15 16 17 18 19
000
FTUS44 KSHV 200521
TAFGGG
TAF
KGGG 200521Z 2006/2106 19010KT P6SM BKN015
      TEMPO 2008/2012 BKN008
     FM201200 20012KT P6SM BKN005
      TEMPO 2012/2015 SCT015
     FM201500 21010G18KT P6SM SCT015 SCT250
     FM201800 22012G20KT P6SM SCT250
     FM210000 18008KT P6SM SCT100 SCT250=

USA.gov is the U.S. government's official web portal to all federal, state and local government web resources and services.